createdAt,value
2023-01-08T00:01:25.376Z,84.40
2023-01-08T00:03:54.011Z,84.72
2023-01-08T00:06:22.567Z,84.87
2023-01-08T00:08:50.964Z,84.49
2023-01-08T00:11:19.905Z,84.48
2023-01-08T00:13:48.215Z,85.23
2023-01-08T00:16:19.175Z,84.49
2023-01-08T00:18:48.137Z,83.78
2023-01-08T00:21:16.681Z,85.28
2023-01-08T00:23:44.956Z,84.91
2023-01-08T00:26:14.510Z,85.58
2023-01-08T00:28:43.310Z,84.38
2023-01-08T00:31:13.550Z,84.94
2023-01-08T00:33:43.392Z,85.91
2023-01-08T00:36:14.444Z,84.60
2023-01-08T00:38:43.175Z,85.35
2023-01-08T00:41:11.788Z,84.91
2023-01-08T00:43:40.180Z,85.32
2023-01-08T00:46:09.063Z,85.15
2023-01-08T00:48:39.153Z,85.00
2023-01-08T00:51:09.788Z,85.67
2023-01-08T00:53:39.275Z,85.20
2023-01-08T00:56:09.760Z,85.53
2023-01-08T00:58:38.476Z,85.19
2023-01-08T01:01:11.460Z,85.19
2023-01-08T01:03:39.995Z,85.04
2023-01-08T01:06:10.479Z,84.85
2023-01-08T01:08:39.036Z,84.59
2023-01-08T01:11:10.691Z,84.16
2023-01-08T01:13:39.081Z,84.00
2023-01-08T01:16:07.925Z,84.24
2023-01-08T01:18:36.357Z,84.40
2023-01-08T01:21:10.558Z,84.53
2023-01-08T01:23:40.721Z,84.80
2023-01-08T01:26:16.591Z,84.28
2023-01-08T01:28:45.107Z,84.86
2023-01-08T01:31:13.846Z,85.04
2023-01-08T01:33:42.576Z,84.78
2023-01-08T01:36:11.898Z,84.65
2023-01-08T01:38:44.257Z,85.67
2023-01-08T01:41:21.469Z,85.71
2023-01-08T01:43:49.700Z,85.89
2023-01-08T01:46:25.958Z,85.75
2023-01-08T01:48:57.257Z,85.31
2023-01-08T01:51:28.765Z,85.47
2023-01-08T01:53:58.473Z,85.76
2023-01-08T01:56:26.773Z,85.46
2023-01-08T01:58:55.486Z,84.69
2023-01-08T02:01:24.691Z,84.88
2023-01-08T02:03:53.586Z,84.92
2023-01-08T02:06:31.432Z,85.49
2023-01-08T02:09:04.377Z,84.95
2023-01-08T02:11:39.680Z,85.39
2023-01-08T02:14:11.601Z,86.02
2023-01-08T02:16:44.010Z,85.39
2023-01-08T02:19:18.957Z,85.84
2023-01-08T02:21:56.878Z,85.69
2023-01-08T02:24:32.015Z,85.48
2023-01-08T02:27:03.239Z,84.86
2023-01-08T02:29:32.421Z,85.08
2023-01-08T02:32:00.681Z,86.23
2023-01-08T02:34:32.219Z,85.84
2023-01-08T02:37:00.998Z,86.46
2023-01-08T02:39:49.504Z,86.70
2023-01-08T02:42:23.905Z,85.73
2023-01-08T02:44:56.755Z,85.80
2023-01-08T02:47:26.583Z,85.70
2023-01-08T02:50:03.262Z,85.91
2023-01-08T02:52:32.943Z,85.93
2023-01-08T02:55:03.366Z,85.55
2023-01-08T02:57:34.831Z,85.43
2023-01-08T03:00:03.241Z,86.78
2023-01-08T03:02:34.860Z,86.94
2023-01-08T03:05:06.935Z,86.23
2023-01-08T03:07:35.414Z,86.42
2023-01-08T03:10:04.358Z,86.65
2023-01-08T03:12:42.798Z,87.08
2023-01-08T03:15:14.841Z,87.45
2023-01-08T03:17:45.546Z,87.17
2023-01-08T03:20:17.485Z,87.68
2023-01-08T03:22:49.524Z,87.36
2023-01-08T03:25:20.492Z,88.20
2023-01-08T03:27:54.227Z,86.94
2023-01-08T03:30:22.971Z,87.53
2023-01-08T03:32:52.683Z,87.26
2023-01-08T03:35:22.698Z,87.37
2023-01-08T03:37:54.929Z,87.16
2023-01-08T03:40:26.700Z,87.07
2023-01-08T03:42:57.933Z,86.47
2023-01-08T03:45:27.671Z,86.78
2023-01-08T03:47:56.821Z,87.00
2023-01-08T03:50:28.074Z,87.20
2023-01-08T03:52:56.378Z,87.26
2023-01-08T03:55:24.736Z,86.90
2023-01-08T03:57:53.119Z,87.24
2023-01-08T04:00:22.904Z,87.11
2023-01-08T04:02:51.183Z,86.81
2023-01-08T04:05:19.664Z,87.00
2023-01-08T04:07:47.958Z,87.39
2023-01-08T04:10:16.303Z,86.66
2023-01-08T04:12:45.229Z,86.97
2023-01-08T04:15:13.574Z,87.07
2023-01-08T04:17:43.279Z,86.99
2023-01-08T04:20:12.571Z,86.99
2023-01-08T04:22:40.933Z,86.82
2023-01-08T04:25:10.053Z,87.00
2023-01-08T04:27:38.539Z,86.89
2023-01-08T04:30:07.922Z,86.93
2023-01-08T04:32:36.196Z,86.92
2023-01-08T04:35:06.699Z,86.95
2023-01-08T04:37:35.061Z,86.92
2023-01-08T04:40:03.367Z,86.99
2023-01-08T04:42:31.795Z,87.12
2023-01-08T04:45:00.349Z,86.90
2023-01-08T04:47:28.719Z,86.85
2023-01-08T04:49:57.044Z,86.86
2023-01-08T04:52:27.149Z,86.68
2023-01-08T04:54:55.477Z,86.40
2023-01-08T04:57:23.868Z,86.66
2023-01-08T04:59:52.123Z,86.84
2023-01-08T05:02:20.585Z,87.06
2023-01-08T05:04:49.506Z,86.78
2023-01-08T05:07:17.807Z,86.56
2023-01-08T05:09:47.476Z,86.48
2023-01-08T05:12:15.786Z,86.60
2023-01-08T05:14:44.114Z,86.73
2023-01-08T05:17:12.988Z,86.51
2023-01-08T05:19:41.337Z,86.19
2023-01-08T05:22:09.607Z,85.96
2023-01-08T05:24:38.538Z,86.72
2023-01-08T05:27:08.270Z,85.86
2023-01-08T05:29:36.529Z,86.40
2023-01-08T05:32:04.884Z,86.26
2023-01-08T05:34:33.299Z,86.83
2023-01-08T05:37:01.575Z,86.32
2023-01-08T05:39:29.927Z,86.48
2023-01-08T05:41:58.261Z,86.24
2023-01-08T05:44:27.898Z,86.82
2023-01-08T05:46:57.123Z,86.53
2023-01-08T05:49:25.751Z,86.49
2023-01-08T05:51:54.060Z,86.38
2023-01-08T05:54:22.398Z,86.28
2023-01-08T05:56:50.880Z,86.11
2023-01-08T05:59:19.146Z,86.56
2023-01-08T06:01:48.911Z,86.55
2023-01-08T06:04:17.442Z,86.30
2023-01-08T06:06:45.884Z,86.24
2023-01-08T06:09:14.616Z,85.99
2023-01-08T06:11:43.018Z,85.89
2023-01-08T06:14:11.356Z,85.37
2023-01-08T06:16:39.634Z,85.49
2023-01-08T06:19:11.126Z,86.13
2023-01-08T06:21:40.379Z,85.17
2023-01-08T06:24:08.945Z,85.53
2023-01-08T06:26:37.408Z,85.57
2023-01-08T06:29:06.199Z,85.59
2023-01-08T06:31:34.757Z,85.49
2023-01-08T06:34:04.642Z,85.36
2023-01-08T06:36:34.315Z,85.62
2023-01-08T06:39:02.680Z,84.92
2023-01-08T06:41:31.011Z,84.92
2023-01-08T06:43:59.319Z,84.33
2023-01-08T06:46:28.054Z,84.18
2023-01-08T06:48:56.439Z,84.38
2023-01-08T06:51:24.707Z,84.31
2023-01-08T06:53:55.003Z,83.67
2023-01-08T06:56:23.443Z,83.30
2023-01-08T06:58:51.799Z,83.26
2023-01-08T07:01:20.633Z,83.07
2023-01-08T07:03:49.198Z,83.28
2023-01-08T07:06:18.726Z,82.56
2023-01-08T07:08:47.137Z,82.92
2023-01-08T07:11:17.716Z,83.02
2023-01-08T07:13:46.028Z,82.34
2023-01-08T07:16:15.631Z,82.43
2023-01-08T07:18:45.098Z,82.37
2023-01-08T07:21:13.450Z,82.03
2023-01-08T07:23:43.421Z,81.87
2023-01-08T07:26:12.058Z,81.54
2023-01-08T07:28:41.759Z,81.24
2023-01-08T07:31:10.195Z,81.27
2023-01-08T07:33:38.764Z,80.89
2023-01-08T07:36:08.148Z,80.01
2023-01-08T07:38:36.552Z,80.78
2023-01-08T07:41:05.019Z,81.02
2023-01-08T07:43:33.399Z,81.38
2023-01-08T07:46:05.447Z,81.10
2023-01-08T07:48:34.115Z,81.68
2023-01-08T07:51:03.541Z,81.09
2023-01-08T07:53:31.989Z,80.97
2023-01-08T07:56:01.953Z,81.74
2023-01-08T07:58:31.024Z,82.03
2023-01-08T08:00:59.635Z,81.99
2023-01-08T08:03:29.462Z,81.60
2023-01-08T08:05:57.935Z,81.39
2023-01-08T08:08:26.331Z,81.10
2023-01-08T08:10:54.583Z,81.09
2023-01-08T08:13:22.873Z,81.09
2023-01-08T08:15:51.312Z,79.79
2023-01-08T08:18:19.701Z,79.92
2023-01-08T08:20:52.159Z,80.72
2023-01-08T08:23:20.431Z,80.96
2023-01-08T08:25:48.779Z,78.68
2023-01-08T08:28:17.212Z,74.05
2023-01-08T08:30:46.367Z,71.11
2023-01-08T08:33:14.725Z,67.54
2023-01-08T08:35:43.209Z,70.93
2023-01-08T08:38:13.439Z,74.48
2023-01-08T08:40:43.286Z,76.65
2023-01-08T08:43:11.593Z,77.00
2023-01-08T08:45:40.013Z,77.19
2023-01-08T08:48:09.119Z,76.30
2023-01-08T08:50:37.436Z,75.59
2023-01-08T08:53:06.944Z,76.69
2023-01-08T08:55:36.810Z,77.86
2023-01-08T08:58:07.052Z,76.33
2023-01-08T09:00:35.651Z,74.77
2023-01-08T09:03:04.418Z,75.34
2023-01-08T09:05:32.942Z,74.70
2023-01-08T09:08:01.269Z,75.62
2023-01-08T09:10:29.715Z,75.76
2023-01-08T09:12:59.441Z,75.71
2023-01-08T09:15:27.872Z,75.34
2023-01-08T09:17:56.804Z,75.35
2023-01-08T09:20:26.083Z,74.87
2023-01-08T09:22:55.133Z,74.72
2023-01-08T09:25:23.560Z,74.06
2023-01-08T09:28:01.688Z,74.55
2023-01-08T09:30:30.315Z,74.74
2023-01-08T09:33:01.424Z,73.49
2023-01-08T09:35:31.779Z,75.34
2023-01-08T09:38:02.862Z,74.23
2023-01-08T09:40:35.432Z,73.93
2023-01-08T09:43:06.265Z,74.95
2023-01-08T09:45:36.890Z,74.15
2023-01-08T09:48:08.419Z,72.46
2023-01-08T09:50:37.880Z,69.94
2023-01-08T09:53:06.272Z,68.15
2023-01-08T09:55:35.407Z,68.70
2023-01-08T09:58:05.321Z,68.91
2023-01-08T10:00:35.445Z,68.19
2023-01-08T10:03:03.905Z,68.50
2023-01-08T10:05:32.907Z,69.42
2023-01-08T10:08:01.263Z,72.12
2023-01-08T10:10:31.309Z,74.53
2023-01-08T10:13:00.675Z,75.23
2023-01-08T10:15:30.495Z,74.56
2023-01-08T10:18:03.457Z,74.98
2023-01-08T10:20:32.647Z,75.79
2023-01-08T10:23:11.652Z,75.63
2023-01-08T10:25:59.017Z,76.14
2023-01-08T10:28:29.427Z,76.34
2023-01-08T10:31:06.262Z,76.12
2023-01-08T10:33:42.302Z,76.16
2023-01-08T10:36:14.716Z,75.99
2023-01-08T10:38:44.773Z,76.82
2023-01-08T10:41:15.187Z,77.19
2023-01-08T10:43:56.409Z,77.09
2023-01-08T10:46:28.847Z,77.13
2023-01-08T10:48:58.758Z,77.72
2023-01-08T10:51:28.605Z,77.95
2023-01-08T10:53:59.643Z,78.05
2023-01-08T10:56:32.839Z,78.12
2023-01-08T10:59:00.977Z,78.06
2023-01-08T11:01:32.144Z,78.14
2023-01-08T11:04:02.511Z,77.06
2023-01-08T11:06:32.783Z,78.67
2023-01-08T11:09:02.610Z,77.19
2023-01-08T11:11:34.732Z,78.54
2023-01-08T11:14:05.748Z,78.20
2023-01-08T11:16:38.349Z,78.32
2023-01-08T11:19:07.552Z,77.29
2023-01-08T11:21:37.100Z,77.73
2023-01-08T11:24:13.652Z,78.24
2023-01-08T11:26:45.696Z,78.34
2023-01-08T11:29:17.159Z,77.43
2023-01-08T11:31:52.285Z,77.08
2023-01-08T11:34:26.249Z,76.33
2023-01-08T11:36:58.450Z,77.08
2023-01-08T11:39:27.244Z,76.74
2023-01-08T11:42:27.041Z,77.81
2023-01-08T11:45:08.540Z,77.32
2023-01-08T11:48:05.963Z,77.67
2023-01-08T11:50:37.449Z,78.22
2023-01-08T11:53:16.697Z,77.71
2023-01-08T11:55:51.348Z,78.21
2023-01-08T11:58:38.540Z,77.78
2023-01-08T12:01:27.545Z,77.64
2023-01-08T12:04:15.315Z,78.61
2023-01-08T12:06:48.598Z,78.48
2023-01-08T12:09:22.690Z,78.80
2023-01-08T12:11:54.972Z,79.07
2023-01-08T12:14:43.682Z,79.15
2023-01-08T12:17:38.655Z,79.02
2023-01-08T12:20:18.314Z,79.06
2023-01-08T12:22:53.030Z,79.14
2023-01-08T12:25:34.207Z,79.53
2023-01-08T12:28:13.716Z,80.09
2023-01-08T12:30:51.458Z,80.25
2023-01-08T12:33:36.163Z,80.32
2023-01-08T12:36:10.933Z,80.64
2023-01-08T12:38:43.489Z,80.03
2023-01-08T12:41:13.633Z,80.18
2023-01-08T12:43:49.817Z,80.05
2023-01-08T12:46:18.966Z,80.20
2023-01-08T12:48:51.701Z,80.11
2023-01-08T12:51:28.040Z,80.89
2023-01-08T12:54:02.175Z,81.10
2023-01-08T12:56:38.961Z,81.03
2023-01-08T12:59:17.507Z,81.44
2023-01-08T13:01:50.896Z,81.33
2023-01-08T13:04:19.788Z,81.96
2023-01-08T13:06:54.313Z,82.06
2023-01-08T13:09:26.241Z,81.68
2023-01-08T13:11:56.839Z,82.33
2023-01-08T13:14:27.447Z,81.99
2023-01-08T13:17:07.030Z,82.10
2023-01-08T13:19:41.947Z,82.41
2023-01-08T13:22:25.363Z,82.98
2023-01-08T13:24:53.500Z,82.58
2023-01-08T13:27:29.827Z,82.87
2023-01-08T13:29:58.977Z,82.67
2023-01-08T13:32:37.676Z,82.75
2023-01-08T13:35:24.453Z,83.43
2023-01-08T13:38:06.663Z,83.10
2023-01-08T13:40:53.535Z,83.41
2023-01-08T13:43:23.967Z,83.47
2023-01-08T13:46:09.100Z,83.50
2023-01-08T13:48:39.531Z,83.67
2023-01-08T13:51:08.436Z,83.97
2023-01-08T13:53:38.525Z,83.31
2023-01-08T13:56:08.624Z,83.93
2023-01-08T13:58:39.452Z,83.79
2023-01-08T14:01:08.769Z,83.83
2023-01-08T14:03:38.875Z,83.86
2023-01-08T14:06:08.668Z,83.29
2023-01-08T14:08:38.488Z,83.18
2023-01-08T14:11:07.102Z,83.78
2023-01-08T14:13:35.883Z,84.11
2023-01-08T14:16:06.154Z,84.94
2023-01-08T14:18:34.464Z,84.26
2023-01-08T14:21:02.787Z,84.18
2023-01-08T14:23:35.030Z,83.77
2023-01-08T14:26:06.638Z,84.40
2023-01-08T14:28:35.094Z,84.48
2023-01-08T14:31:03.511Z,84.87
2023-01-08T14:33:34.880Z,84.85
2023-01-08T14:36:03.905Z,84.82
2023-01-08T14:38:32.350Z,84.70
2023-01-08T14:41:03.888Z,84.20
2023-01-08T14:43:40.740Z,83.95
2023-01-08T14:46:17.419Z,85.08
2023-01-08T14:48:46.743Z,84.85
2023-01-08T14:51:17.745Z,84.79
2023-01-08T14:53:47.949Z,85.03
2023-01-08T14:56:18.284Z,84.67
2023-01-08T14:58:48.507Z,84.61
2023-01-08T15:01:18.436Z,84.86
2023-01-08T15:03:48.234Z,84.47
2023-01-08T15:06:25.985Z,84.56
2023-01-08T15:08:54.418Z,85.34
2023-01-08T15:11:24.641Z,85.22
2023-01-08T15:13:56.782Z,83.70
2023-01-08T15:16:29.837Z,84.41
2023-01-08T15:19:04.378Z,84.24
2023-01-08T15:21:32.977Z,84.72
2023-01-08T15:24:02.604Z,84.17
2023-01-08T15:26:31.204Z,84.18
2023-01-08T15:29:02.408Z,84.47
2023-01-08T15:31:33.086Z,83.95
2023-01-08T15:34:02.166Z,84.02
2023-01-08T15:36:30.534Z,84.50
2023-01-08T15:38:58.924Z,84.55
2023-01-08T15:41:44.458Z,84.87
2023-01-08T15:44:15.480Z,85.44
2023-01-08T15:46:43.835Z,85.26
2023-01-08T15:49:12.196Z,85.53
2023-01-08T15:51:44.241Z,84.52
2023-01-08T15:54:13.975Z,84.51
2023-01-08T15:56:42.672Z,84.77
2023-01-08T15:59:11.618Z,84.79
2023-01-08T16:01:41.654Z,84.39
2023-01-08T16:04:10.183Z,84.26
2023-01-08T16:06:38.618Z,84.64
2023-01-08T16:09:07.057Z,84.63
2023-01-08T16:11:35.528Z,84.13
2023-01-08T16:14:04.108Z,82.98
2023-01-08T16:16:33.227Z,83.77
2023-01-08T16:19:03.078Z,82.45
2023-01-08T16:21:33.395Z,82.14
2023-01-08T16:24:01.926Z,83.04
2023-01-08T16:26:30.952Z,83.49
2023-01-08T16:28:59.378Z,82.46
2023-01-08T16:31:27.998Z,82.63
2023-01-08T16:33:56.368Z,84.04
2023-01-08T16:36:26.233Z,83.11
2023-01-08T16:38:54.761Z,84.48
2023-01-08T16:41:23.072Z,82.89
2023-01-08T16:43:54.202Z,82.47
2023-01-08T16:46:22.682Z,82.56
2023-01-08T16:48:51.389Z,82.57
2023-01-08T16:51:21.466Z,81.77
2023-01-08T16:53:51.264Z,81.73
2023-01-08T16:56:19.666Z,82.18
2023-01-08T16:58:51.953Z,81.58
2023-01-08T17:01:20.476Z,81.65
2023-01-08T17:03:48.995Z,81.73
2023-01-08T17:06:17.735Z,81.94
2023-01-08T17:08:46.183Z,83.39
2023-01-08T17:11:17.607Z,82.42
2023-01-08T17:13:46.184Z,80.85
2023-01-08T17:16:16.695Z,81.67
2023-01-08T17:18:45.450Z,82.05
2023-01-08T17:21:15.327Z,82.33
2023-01-08T17:23:43.701Z,83.28
2023-01-08T17:26:15.113Z,82.50
2023-01-08T17:28:45.436Z,82.68
2023-01-08T17:31:18.476Z,83.02
2023-01-08T17:33:50.537Z,83.20
2023-01-08T17:36:20.569Z,81.82
2023-01-08T17:38:50.252Z,81.44
2023-01-08T17:41:32.960Z,81.11
2023-01-08T17:44:03.461Z,81.46
2023-01-08T17:46:32.007Z,81.54
2023-01-08T17:49:00.432Z,82.55
2023-01-08T17:51:30.415Z,81.20
2023-01-08T17:53:58.854Z,81.88
2023-01-08T17:56:27.445Z,81.26
2023-01-08T17:58:56.005Z,81.20
2023-01-08T18:01:26.437Z,81.28
2023-01-08T18:03:54.927Z,81.81
2023-01-08T18:06:23.821Z,81.49
2023-01-08T18:08:52.171Z,81.24
2023-01-08T18:11:22.548Z,81.58
2023-01-08T18:13:51.035Z,82.68
2023-01-08T18:16:19.536Z,82.10
2023-01-08T18:18:49.606Z,81.70
2023-01-08T18:21:18.626Z,81.34
2023-01-08T18:23:47.835Z,80.34
2023-01-08T18:26:17.551Z,80.56
2023-01-08T18:28:48.007Z,79.47
2023-01-08T18:31:17.471Z,79.55
2023-01-08T18:33:46.391Z,79.89
2023-01-08T18:36:16.278Z,79.52
2023-01-08T18:38:45.363Z,81.25
2023-01-08T18:41:36.342Z,79.75
2023-01-08T18:44:06.823Z,79.73
2023-01-08T18:46:35.749Z,79.42
2023-01-08T18:49:05.072Z,80.35
2023-01-08T18:51:35.067Z,79.04
2023-01-08T18:54:04.676Z,79.67
2023-01-08T18:56:34.915Z,79.20
2023-01-08T18:59:03.942Z,79.15
2023-01-08T19:01:32.813Z,79.17
2023-01-08T19:04:01.535Z,79.36
2023-01-08T19:06:30.041Z,80.27
2023-01-08T19:09:01.099Z,79.41
2023-01-08T19:11:29.656Z,79.49
2023-01-08T19:13:58.470Z,78.55
2023-01-08T19:16:27.001Z,79.38
2023-01-08T19:18:55.865Z,78.88
2023-01-08T19:21:24.154Z,79.92
2023-01-08T19:23:52.496Z,80.78
2023-01-08T19:26:22.597Z,80.02
2023-01-08T19:28:50.917Z,80.75
2023-01-08T19:31:19.865Z,80.98
2023-01-08T19:33:48.330Z,78.92
2023-01-08T19:36:18.850Z,79.45
2023-01-08T19:38:47.333Z,81.04
2023-01-08T19:41:32.897Z,79.68
2023-01-08T19:44:02.761Z,79.29
2023-01-08T19:46:31.660Z,79.31
2023-01-08T19:49:00.791Z,79.52
2023-01-08T19:51:29.892Z,81.40
2023-01-08T19:53:59.451Z,82.22
2023-01-08T19:56:28.870Z,80.72
2023-01-08T19:58:57.870Z,79.50
2023-01-08T20:01:29.362Z,79.49
2023-01-08T20:03:58.225Z,78.67
2023-01-08T20:06:27.600Z,79.36
2023-01-08T20:08:58.813Z,78.75
2023-01-08T20:11:27.809Z,79.36
2023-01-08T20:13:56.759Z,79.18
2023-01-08T20:16:25.355Z,79.08
2023-01-08T20:18:57.483Z,79.21
2023-01-08T20:21:26.210Z,80.14
2023-01-08T20:23:59.634Z,80.09
2023-01-08T20:26:30.306Z,81.03
2023-01-08T20:28:59.241Z,80.59
2023-01-08T20:31:31.384Z,79.77
2023-01-08T20:34:02.419Z,79.81
2023-01-08T20:36:32.972Z,80.24
2023-01-08T20:39:03.275Z,79.69
2023-01-08T20:41:31.728Z,79.26
2023-01-08T20:44:02.103Z,79.39
2023-01-08T20:46:30.970Z,79.09
2023-01-08T20:49:03.691Z,80.18
2023-01-08T20:51:32.373Z,80.82
2023-01-08T20:54:01.854Z,80.30
2023-01-08T20:56:31.206Z,81.16
2023-01-08T20:58:59.485Z,81.41
2023-01-08T21:01:31.439Z,80.68
2023-01-08T21:04:02.062Z,81.64
2023-01-08T21:06:33.194Z,81.23
2023-01-08T21:09:03.332Z,82.36
2023-01-08T21:11:31.959Z,81.63
2023-01-08T21:14:01.976Z,81.18
2023-01-08T21:16:31.617Z,82.35
2023-01-08T21:19:01.433Z,82.83
2023-01-08T21:21:33.127Z,83.60
2023-01-08T21:24:04.359Z,83.17
2023-01-08T21:26:33.525Z,83.99
2023-01-08T21:29:03.168Z,82.37
2023-01-08T21:31:31.958Z,81.80
2023-01-08T21:34:02.855Z,82.23
2023-01-08T21:36:32.049Z,81.94
2023-01-08T21:39:01.322Z,82.29
2023-01-08T21:42:00.151Z,82.21
2023-01-08T21:44:45.776Z,81.88
2023-01-08T21:47:16.711Z,82.16
2023-01-08T21:49:46.748Z,82.34
2023-01-08T21:52:32.605Z,82.88
2023-01-08T21:55:00.999Z,82.91
2023-01-08T21:57:29.849Z,83.06
2023-01-08T21:59:58.558Z,83.59
2023-01-08T22:02:27.059Z,82.84
2023-01-08T22:04:58.514Z,82.86
2023-01-08T22:07:27.353Z,82.94
2023-01-08T22:09:56.350Z,83.20
2023-01-08T22:12:26.238Z,82.61
2023-01-08T22:14:54.793Z,82.77
2023-01-08T22:17:23.727Z,83.02
2023-01-08T22:19:52.048Z,82.99
2023-01-08T22:22:21.745Z,84.31
2023-01-08T22:24:50.140Z,84.23
2023-01-08T22:27:18.531Z,84.27
2023-01-08T22:29:48.282Z,83.23
2023-01-08T22:32:16.676Z,83.11
2023-01-08T22:34:47.563Z,83.32
2023-01-08T22:37:17.202Z,83.23
2023-01-08T22:39:47.243Z,83.07
2023-01-08T22:42:16.131Z,83.57
2023-01-08T22:44:44.551Z,82.99
2023-01-08T22:47:12.970Z,83.13
2023-01-08T22:49:41.423Z,83.47
2023-01-08T22:52:10.253Z,83.37
2023-01-08T22:54:39.197Z,84.13
2023-01-08T22:57:09.265Z,83.11
2023-01-08T22:59:37.549Z,83.59
2023-01-08T23:02:06.135Z,83.42
2023-01-08T23:04:34.404Z,83.55
2023-01-08T23:07:02.717Z,83.70
2023-01-08T23:09:31.063Z,83.51
2023-01-08T23:11:59.365Z,83.68
2023-01-08T23:14:29.825Z,83.18
2023-01-08T23:16:58.307Z,83.08
2023-01-08T23:19:26.704Z,82.54
2023-01-08T23:21:54.971Z,83.54
2023-01-08T23:24:23.344Z,83.14
2023-01-08T23:26:51.650Z,82.62
2023-01-08T23:29:20.070Z,82.98
2023-01-08T23:31:49.928Z,82.89
2023-01-08T23:34:18.871Z,81.74
2023-01-08T23:36:47.127Z,82.17
2023-01-08T23:39:15.536Z,82.39
2023-01-08T23:41:43.870Z,82.28
2023-01-08T23:44:17.054Z,82.17
2023-01-08T23:46:45.456Z,82.80
2023-01-08T23:49:15.269Z,82.72
2023-01-08T23:51:43.739Z,82.77
2023-01-08T23:54:12.227Z,82.74
2023-01-08T23:56:41.135Z,82.57
2023-01-08T23:59:10.073Z,82.82
